This is the latest recevied weather packets stored in our database for station/object KC2WGU. If no packets are shown the sender has not sent any weather packets the latest 1 day(s).
| Time | Temp. | Humidity | Pressure | Rain* | Wind** | Luminosity | Snow |
|---|---|---|---|---|---|---|---|
| 1778017822 | 16.67° C | 82% | 1004.4 hPa | 0.25 mm | 2.68 m/s, 229° | 70 W/m² | - |
| 1778017223 | 16.67° C | 82% | 1004.4 hPa | 0.76 mm | 2.68 m/s, 240° | 59 W/m² | - |
| 1778016623 | 16.67° C | 82% | 1004.5 hPa | 1.02 mm | 3.13 m/s, 261° | 135 W/m² | - |
| 1778016023 | 16.67° C | 82% | 1004.8 hPa | 0.76 mm | 3.13 m/s, 259° | 55 W/m² | - |
| 1778015421 | 16.67° C | 83% | 1004.4 hPa | 0.76 mm | 3.58 m/s, 274° | 85 W/m² | - |
| 1778014841 | 16.67° C | 84% | 1004.4 hPa | 0.76 mm | 3.13 m/s, 277° | 99 W/m² | - |
| 1778014222 | 16.11° C | 84% | 1004.2 hPa | 0.76 mm | 4.92 m/s, 263° | 167 W/m² | - |
| 1778013623 | 16.67° C | 82% | 1003.6 hPa | 0.25 mm | 4.02 m/s, 279° | 75 W/m² | - |
| 1778013023 | 16.67° C | 80% | 1003.6 hPa | 0 mm | 3.58 m/s, 293° | 233 W/m² | - |
| 1778012423 | 18.33° C | 73% | 1003.7 hPa | 0.25 mm | 5.81 m/s, 315° | 55 W/m² | - |
| 1778011822 | 21.11° C | 64% | 1003.1 hPa | 0.25 mm | 3.13 m/s, 313° | 41 W/m² | - |
| 1778011224 | 21.67° C | 63% | 1002.3 hPa | 0.51 mm | 2.24 m/s, 299° | 68 W/m² | - |
| 1778010623 | 21.67° C | 65% | 1002.3 hPa | 1.02 mm | 2.68 m/s, 296° | 224 W/m² | - |
| 1778010022 | 21.67° C | 66% | 1002.5 hPa | 1.27 mm | 3.13 m/s, 296° | 672 W/m² | - |
| 1778009424 | 21.11° C | 67% | 1002.4 hPa | 1.27 mm | 2.68 m/s, 280° | 558 W/m² | - |
| 1778008823 | 20° C | 74% | 1002.6 hPa | 1.02 mm | 2.24 m/s, 264° | 714 W/m² | - |
| 1778007620 | 18.33° C | 72% | 1003.5 hPa | 1.52 mm | 1.34 m/s, 208° | 0 W/m² | - |
| 1778007020 | 18.33° C | 71% | 1003.3 hPa | 1.27 mm | 1.34 m/s, 208° | 0 W/m² | - |
| 1778006419 | 20.56° C | 63% | 1003 hPa | 0.51 mm | 1.34 m/s, 208° | 0 W/m² | - |
| 1778005820 | 20° C | 65% | 1002.6 hPa | 0.51 mm | 1.34 m/s, 208° | 0 W/m² | - |
| 1778005220 | 20° C | 64% | 1002.4 hPa | 0.51 mm | 1.34 m/s, 208° | 0 W/m² | - |
| 1778004621 | 21.11° C | 60% | 1002.4 hPa | 0.51 mm | 1.34 m/s, 208° | 0 W/m² | - |
| 1778004021 | 23.33° C | 47% | 1002.4 hPa | 0 mm | 1.34 m/s, 208° | 0 W/m² | - |
| 1778003420 | 24.44° C | 44% | 1002.4 hPa | 0 mm | 1.34 m/s, 208° | 0 W/m² | - |
| 1778002820 | 25° C | 43% | 1002.4 hPa | 0 mm | 1.34 m/s, 208° | 0 W/m² | - |
* Rain latest hour (hover to see other rain measurements)
** Current wind speed in m/s (hover to see current wind gust speed)